createdAt,value
2019-01-02T00:00:46.734Z,3.30
2019-01-02T00:03:15.836Z,2.27
2019-01-02T00:05:45.286Z,4.77
2019-01-02T00:08:14.420Z,3.33
2019-01-02T00:10:43.546Z,1.80
2019-01-02T00:13:12.709Z,3.33
2019-01-02T00:15:42.111Z,3.37
2019-01-02T00:18:11.147Z,3.13
2019-01-02T00:20:40.037Z,2.70
2019-01-02T00:23:09.393Z,3.63
2019-01-02T00:25:38.431Z,3.83
2019-01-02T00:28:08.161Z,3.43
2019-01-02T00:30:37.608Z,4.10
2019-01-02T00:33:07.142Z,2.87
2019-01-02T00:35:36.158Z,3.07
2019-01-02T00:38:05.518Z,2.93
2019-01-02T00:40:34.543Z,3.20
2019-01-02T00:43:03.625Z,2.73
2019-01-02T00:45:32.698Z,2.67
2019-01-02T00:48:01.636Z,3.07
2019-01-02T00:50:33.393Z,2.47
2019-01-02T00:53:02.379Z,3.37
2019-01-02T00:55:31.775Z,2.70
2019-01-02T00:58:00.734Z,3.10
2019-01-02T01:00:31.672Z,2.13
2019-01-02T01:03:00.714Z,2.57
2019-01-02T01:05:29.792Z,1.90
2019-01-02T01:07:58.845Z,3.07
2019-01-02T01:10:28.516Z,3.13
2019-01-02T01:12:57.614Z,2.77
2019-01-02T01:15:27.102Z,3.07
2019-01-02T01:17:56.239Z,2.87
2019-01-02T01:20:25.309Z,2.70
2019-01-02T01:22:54.286Z,2.90
2019-01-02T01:25:23.725Z,1.97
2019-01-02T01:27:52.761Z,3.27
2019-01-02T01:30:22.154Z,3.00
2019-01-02T01:32:51.103Z,2.87
2019-01-02T01:35:20.137Z,2.40
2019-01-02T01:37:52.517Z,2.97
2019-01-02T01:40:21.482Z,3.33
2019-01-02T01:42:52.606Z,2.40
2019-01-02T01:45:22.220Z,2.53
2019-01-02T01:47:51.197Z,3.00
2019-01-02T01:50:20.754Z,2.90
2019-01-02T01:52:50.062Z,3.90
2019-01-02T01:55:19.025Z,3.30
2019-01-02T01:57:48.583Z,2.73
2019-01-02T02:00:21.238Z,4.17
2019-01-02T02:02:50.373Z,3.57
2019-01-02T02:05:19.778Z,3.23
2019-01-02T02:07:49.266Z,2.80
2019-01-02T02:10:18.838Z,3.37
2019-01-02T02:12:47.857Z,3.33
2019-01-02T02:15:16.901Z,3.10
2019-01-02T02:17:46.663Z,2.47
2019-01-02T02:20:15.822Z,3.50
2019-01-02T02:22:45.246Z,3.57
2019-01-02T02:25:19.414Z,2.97
2019-01-02T02:27:48.477Z,3.30
2019-01-02T02:30:17.821Z,2.93
2019-01-02T02:32:48.417Z,3.47
2019-01-02T02:35:17.835Z,2.97
2019-01-02T02:37:46.857Z,3.40
2019-01-02T02:40:16.202Z,3.83
2019-01-02T02:42:48.057Z,3.20
2019-01-02T02:45:17.493Z,3.83
2019-01-02T02:47:46.921Z,2.90
2019-01-02T02:50:17.057Z,3.40
2019-01-02T02:52:46.499Z,2.87
2019-01-02T02:55:21.818Z,3.20
2019-01-02T02:57:50.769Z,3.10
2019-01-02T03:00:19.801Z,3.73
2019-01-02T03:02:50.238Z,3.17
2019-01-02T03:05:19.282Z,2.47
2019-01-02T03:07:48.220Z,3.57
2019-01-02T03:10:18.196Z,3.60
2019-01-02T03:12:47.701Z,3.20
2019-01-02T03:15:17.102Z,3.37
2019-01-02T03:17:46.091Z,3.40
2019-01-02T03:20:16.083Z,2.67
2019-01-02T03:22:45.500Z,3.00
2019-01-02T03:25:15.582Z,3.10
2019-01-02T03:27:44.904Z,3.40
2019-01-02T03:30:16.664Z,3.77
2019-01-02T03:32:46.084Z,3.40
2019-01-02T03:35:15.921Z,3.97
2019-01-02T03:37:44.882Z,3.33
2019-01-02T03:40:15.374Z,3.50
2019-01-02T03:42:44.429Z,4.27
2019-01-02T03:45:15.852Z,3.00
2019-01-02T03:47:44.893Z,2.30
2019-01-02T03:50:15.998Z,2.97
2019-01-02T03:52:45.037Z,2.10
2019-01-02T03:55:14.403Z,3.20
2019-01-02T03:57:43.428Z,3.17
2019-01-02T04:00:14.937Z,2.90
2019-01-02T04:02:43.966Z,3.43
2019-01-02T04:05:14.369Z,3.37
2019-01-02T04:07:46.314Z,2.60
2019-01-02T04:10:15.373Z,2.70
2019-01-02T04:12:44.430Z,2.63
2019-01-02T04:15:13.711Z,3.50
2019-01-02T04:17:42.763Z,4.40
2019-01-02T04:20:12.159Z,3.27
2019-01-02T04:22:41.142Z,3.20
2019-01-02T04:25:10.202Z,2.67
2019-01-02T04:27:39.221Z,3.33
2019-01-02T04:30:10.850Z,2.87
2019-01-02T04:32:39.831Z,2.83
2019-01-02T04:35:08.808Z,3.13
2019-01-02T04:37:37.822Z,3.27
2019-01-02T04:40:10.392Z,2.63
2019-01-02T04:42:39.504Z,3.90
2019-01-02T04:45:09.661Z,3.00
2019-01-02T04:47:38.700Z,3.53
2019-01-02T04:50:10.001Z,2.43
2019-01-02T04:52:39.034Z,2.03
2019-01-02T04:55:08.151Z,2.27
2019-01-02T04:57:37.190Z,2.73
2019-01-02T05:00:12.720Z,2.67
2019-01-02T05:02:41.685Z,2.87
2019-01-02T05:05:10.717Z,2.87
2019-01-02T05:07:39.690Z,3.37
2019-01-02T05:10:10.194Z,2.80
2019-01-02T05:12:39.552Z,3.30
2019-01-02T05:15:09.436Z,3.13
2019-01-02T05:17:38.395Z,3.20
2019-01-02T05:20:10.258Z,2.70
2019-01-02T05:22:39.287Z,3.40
2019-01-02T05:25:08.750Z,3.00
2019-01-02T05:27:37.796Z,4.07
2019-01-02T05:30:11.351Z,2.53
2019-01-02T05:32:40.411Z,2.57
2019-01-02T05:35:09.769Z,2.40
2019-01-02T05:37:39.043Z,2.10
2019-01-02T05:40:11.049Z,1.97
2019-01-02T05:42:40.002Z,2.27
2019-01-02T05:45:09.234Z,2.33
2019-01-02T05:47:38.263Z,2.80
2019-01-02T05:50:07.735Z,2.47
2019-01-02T05:52:36.889Z,2.57
2019-01-02T05:55:06.044Z,3.17
2019-01-02T05:57:35.070Z,2.70
2019-01-02T06:00:04.701Z,2.60
2019-01-02T06:02:33.682Z,3.13
2019-01-02T06:05:02.652Z,2.93
2019-01-02T06:07:31.707Z,3.47
2019-01-02T06:10:00.654Z,3.53
2019-01-02T06:12:29.681Z,3.53
2019-01-02T06:14:58.659Z,3.17
2019-01-02T06:17:27.612Z,3.00
2019-01-02T06:19:56.579Z,3.70
2019-01-02T06:22:25.631Z,3.00
2019-01-02T06:24:54.698Z,3.27
2019-01-02T06:27:23.742Z,3.80
2019-01-02T06:29:52.737Z,3.63
2019-01-02T06:32:21.758Z,4.67
2019-01-02T06:34:50.858Z,3.90
2019-01-02T06:37:19.834Z,3.77
2019-01-02T06:39:48.939Z,2.40
2019-01-02T06:42:17.961Z,2.30
2019-01-02T06:44:47.305Z,2.10
2019-01-02T06:47:16.400Z,2.30
2019-01-02T06:49:45.349Z,1.93
2019-01-02T06:52:33.614Z,1.83
2019-01-02T06:55:02.671Z,1.97
2019-01-02T06:57:31.991Z,2.93
2019-01-02T07:00:00.986Z,2.53
2019-01-02T07:02:30.106Z,2.43
2019-01-02T07:04:59.151Z,2.60
2019-01-02T07:07:31.153Z,2.60
2019-01-02T07:09:58.742Z,2.33
2019-01-02T07:12:28.065Z,2.10
2019-01-02T07:14:57.045Z,2.83
2019-01-02T07:17:26.053Z,3.13
2019-01-02T07:19:55.098Z,3.07
2019-01-02T07:22:24.066Z,2.93
2019-01-02T07:25:11.283Z,3.10
2019-01-02T07:27:41.406Z,2.07
2019-01-02T07:30:14.026Z,2.50
2019-01-02T07:32:43.066Z,2.80
2019-01-02T07:35:44.962Z,3.03
2019-01-02T07:38:41.168Z,2.30
2019-01-02T07:41:42.349Z,3.47
2019-01-02T07:44:33.997Z,2.83
2019-01-02T07:47:46.315Z,3.53
2019-01-02T07:51:00.266Z,3.53
2019-01-02T07:54:13.690Z,2.73
2019-01-02T07:57:18.430Z,2.00
2019-01-02T08:00:24.926Z,2.60
2019-01-02T08:03:14.919Z,2.37
2019-01-02T08:06:27.934Z,2.80
2019-01-02T08:09:43.301Z,2.83
2019-01-02T08:12:36.159Z,2.40
2019-01-02T08:16:08.785Z,3.40
2019-01-02T08:19:01.274Z,3.10
2019-01-02T08:22:17.155Z,4.07
2019-01-02T08:25:48.641Z,2.60
2019-01-02T08:28:59.506Z,3.10
2019-01-02T08:31:53.493Z,2.37
2019-01-02T08:35:00.035Z,3.53
2019-01-02T08:37:48.725Z,2.90
2019-01-02T08:40:54.932Z,3.73
2019-01-02T08:43:53.685Z,3.10
2019-01-02T08:47:01.028Z,2.87
2019-01-02T08:50:10.450Z,3.27
2019-01-02T08:53:24.006Z,4.10
2019-01-02T08:56:33.269Z,6.87
2019-01-02T08:59:28.431Z,3.13
2019-01-02T09:02:43.894Z,3.17
2019-01-02T09:05:55.938Z,2.43
2019-01-02T09:09:01.967Z,2.83
2019-01-02T09:12:03.972Z,3.13
2019-01-02T09:15:25.197Z,3.30
2019-01-02T09:18:24.846Z,3.40
2019-01-02T09:21:47.165Z,2.80
2019-01-02T09:24:58.825Z,3.53
2019-01-02T09:28:11.649Z,2.90
2019-01-02T09:31:23.377Z,3.20
2019-01-02T09:34:31.099Z,2.37
2019-01-02T09:37:26.810Z,3.13
2019-01-02T09:40:21.418Z,3.17
2019-01-02T09:43:33.997Z,3.13
2019-01-02T09:46:44.710Z,2.30
2019-01-02T09:49:56.509Z,3.40
2019-01-02T09:53:01.747Z,2.87
2019-01-02T09:56:12.445Z,2.20
2019-01-02T09:59:18.213Z,2.40
2019-01-02T10:02:01.214Z,3.00
2019-01-02T10:04:41.845Z,2.10
2019-01-02T10:07:51.161Z,2.90
2019-01-02T10:10:48.840Z,2.63
2019-01-02T10:13:42.169Z,3.30
2019-01-02T10:16:49.090Z,2.77
2019-01-02T10:19:52.278Z,3.07
2019-01-02T10:22:57.046Z,3.57
2019-01-02T10:26:12.518Z,3.43
2019-01-02T10:29:37.169Z,3.30
2019-01-02T10:33:06.025Z,3.17
2019-01-02T10:36:13.502Z,3.30
2019-01-02T10:39:19.697Z,2.83
2019-01-02T10:42:25.845Z,2.10
2019-01-02T10:45:31.670Z,2.20
2019-01-02T10:48:34.030Z,2.63
2019-01-02T10:51:30.758Z,2.53
2019-01-02T10:54:38.503Z,2.70
2019-01-02T10:57:44.725Z,4.00
2019-01-02T11:00:35.077Z,2.83
2019-01-02T11:03:35.561Z,2.60
2019-01-02T11:06:43.079Z,3.10
2019-01-02T11:09:52.027Z,2.73
2019-01-02T11:13:01.155Z,3.07
2019-01-02T11:16:17.154Z,3.20
2019-01-02T11:19:38.679Z,4.23
2019-01-02T11:22:20.702Z,3.57
2019-01-02T11:25:16.981Z,5.23
2019-01-02T11:28:21.114Z,2.80
2019-01-02T11:31:34.763Z,3.10
2019-01-02T11:34:41.780Z,3.50
2019-01-02T11:37:46.917Z,3.73
2019-01-02T11:40:50.556Z,3.00
2019-01-02T11:44:04.905Z,2.97
2019-01-02T11:46:33.830Z,2.87
2019-01-02T11:49:02.914Z,5.07
2019-01-02T11:51:31.923Z,3.30
2019-01-02T11:54:01.161Z,4.47
2019-01-02T11:56:30.114Z,4.00
2019-01-02T11:58:59.553Z,2.97
2019-01-02T12:01:28.560Z,3.80
2019-01-02T12:03:57.873Z,3.93
2019-01-02T12:06:26.831Z,3.70
2019-01-02T12:08:55.853Z,5.47
2019-01-02T12:11:24.877Z,3.67
2019-01-02T12:13:53.825Z,4.17
2019-01-02T12:16:22.701Z,3.50
2019-01-02T12:18:51.594Z,3.60
2019-01-02T12:21:20.614Z,3.30
2019-01-02T12:23:49.644Z,4.40
2019-01-02T12:26:19.014Z,3.13
2019-01-02T12:28:47.957Z,2.87
2019-01-02T12:31:17.586Z,3.00
2019-01-02T12:33:46.918Z,3.20
2019-01-02T12:36:15.885Z,3.17
2019-01-02T12:38:44.842Z,2.80
2019-01-02T12:41:13.794Z,2.47
2019-01-02T12:43:42.885Z,3.73
2019-01-02T12:46:11.814Z,3.17
2019-01-02T12:48:40.681Z,2.67
2019-01-02T12:51:09.557Z,2.60
2019-01-02T12:53:43.734Z,4.33
2019-01-02T12:56:09.305Z,3.07
2019-01-02T12:58:38.642Z,2.47
2019-01-02T13:01:08.686Z,2.80
2019-01-02T13:04:23.713Z,2.83
2019-01-02T13:07:26.238Z,3.13
2019-01-02T13:10:30.949Z,3.33
2019-01-02T13:13:16.017Z,2.83
2019-01-02T13:16:11.233Z,2.87
2019-01-02T13:19:13.915Z,3.40
2019-01-02T13:22:05.605Z,3.43
2019-01-02T13:25:23.858Z,3.33
2019-01-02T13:28:39.178Z,3.50
2019-01-02T13:31:58.386Z,3.27
2019-01-02T13:35:10.138Z,4.20
2019-01-02T13:38:01.310Z,3.57
2019-01-02T13:41:31.387Z,4.37
2019-01-02T13:44:13.842Z,3.67
2019-01-02T13:47:23.231Z,3.17
2019-01-02T13:50:17.394Z,2.87
2019-01-02T13:52:46.373Z,3.40
2019-01-02T13:55:18.362Z,3.73
2019-01-02T13:57:47.233Z,3.90
2019-01-02T14:00:16.265Z,2.80
2019-01-02T14:02:45.233Z,2.30
2019-01-02T14:05:17.535Z,3.03
2019-01-02T14:07:46.409Z,3.17
2019-01-02T14:10:15.562Z,2.80
2019-01-02T14:12:44.662Z,2.57
2019-01-02T14:15:13.654Z,2.60
2019-01-02T14:17:42.520Z,2.50
2019-01-02T14:20:11.450Z,2.70
2019-01-02T14:22:40.563Z,2.73
2019-01-02T14:25:09.591Z,2.80
2019-01-02T14:27:38.997Z,2.43
2019-01-02T14:30:08.668Z,2.73
2019-01-02T14:32:37.626Z,3.50
2019-01-02T14:35:06.997Z,2.50
2019-01-02T14:37:36.458Z,2.80
2019-01-02T14:40:05.734Z,2.97
2019-01-02T14:42:34.700Z,2.90
2019-01-02T14:45:03.757Z,3.73
2019-01-02T14:47:32.742Z,2.87
2019-01-02T14:50:02.105Z,4.03
2019-01-02T14:52:31.101Z,3.33
2019-01-02T14:55:00.172Z,4.70
2019-01-02T14:57:29.221Z,4.30
2019-01-02T14:59:58.267Z,4.80
2019-01-02T15:02:27.152Z,3.77
2019-01-02T15:04:56.081Z,4.57
2019-01-02T15:07:25.037Z,3.90
2019-01-02T15:09:54.044Z,3.43
2019-01-02T15:12:23.634Z,2.90
2019-01-02T15:14:53.253Z,5.77
2019-01-02T15:17:22.197Z,7.77
2019-01-02T15:19:51.103Z,5.97
2019-01-02T15:22:20.811Z,6.10
2019-01-02T15:24:49.694Z,6.17
2019-01-02T15:27:18.633Z,4.63
2019-01-02T15:29:47.844Z,5.13
2019-01-02T15:32:16.825Z,4.50
2019-01-02T15:34:45.773Z,3.80
2019-01-02T15:37:14.809Z,3.57
2019-01-02T15:39:43.879Z,3.00
2019-01-02T15:42:12.914Z,2.97
2019-01-02T15:44:42.089Z,2.80
2019-01-02T15:47:11.044Z,3.33
2019-01-02T15:49:39.993Z,2.37
2019-01-02T15:52:09.067Z,2.33
2019-01-02T15:54:38.070Z,2.60
2019-01-02T15:57:07.054Z,4.20
2019-01-02T15:59:35.959Z,3.40
2019-01-02T16:02:05.046Z,2.27
2019-01-02T16:04:34.100Z,3.53
2019-01-02T16:07:03.173Z,3.17
2019-01-02T16:09:32.198Z,2.23
2019-01-02T16:12:01.278Z,2.87
2019-01-02T16:14:30.186Z,3.53
2019-01-02T16:16:59.155Z,5.03
2019-01-02T16:19:28.214Z,3.17
2019-01-02T16:21:58.135Z,3.23
2019-01-02T16:24:27.133Z,2.57
2019-01-02T16:26:58.902Z,4.70
2019-01-02T16:29:28.078Z,2.97
2019-01-02T16:31:57.856Z,2.67
2019-01-02T16:34:26.854Z,3.00
2019-01-02T16:36:55.895Z,2.00
2019-01-02T16:39:24.892Z,4.17
2019-01-02T16:41:53.911Z,2.50
2019-01-02T16:44:23.118Z,2.67
2019-01-02T16:46:52.183Z,2.10
2019-01-02T16:49:21.218Z,2.67
2019-01-02T16:51:50.303Z,3.23
2019-01-02T16:54:19.299Z,2.73
2019-01-02T16:56:48.260Z,2.27
2019-01-02T16:59:17.266Z,2.43
2019-01-02T17:01:46.281Z,2.50
2019-01-02T17:04:15.838Z,1.93
2019-01-02T17:06:44.782Z,2.80
2019-01-02T17:09:13.729Z,2.20
2019-01-02T17:11:42.888Z,2.47
2019-01-02T17:14:11.910Z,1.87
2019-01-02T17:16:40.861Z,2.20
2019-01-02T17:19:09.765Z,2.83
2019-01-02T17:21:38.772Z,2.63
2019-01-02T17:24:07.785Z,3.17
2019-01-02T17:26:36.751Z,2.23
2019-01-02T17:29:05.764Z,2.20
2019-01-02T17:31:34.802Z,1.80
2019-01-02T17:34:03.822Z,2.43
2019-01-02T17:36:32.753Z,3.00
2019-01-02T17:39:01.654Z,3.10
2019-01-02T17:41:30.617Z,4.03
2019-01-02T17:43:59.641Z,2.50
2019-01-02T17:46:28.681Z,3.63
2019-01-02T17:48:58.019Z,3.00
2019-01-02T17:51:27.053Z,3.60
2019-01-02T17:53:56.107Z,3.10
2019-01-02T17:56:25.110Z,3.40
2019-01-02T17:58:54.054Z,4.13
2019-01-02T18:01:23.013Z,3.73
2019-01-02T18:03:52.331Z,3.73
2019-01-02T18:06:21.219Z,3.50
2019-01-02T18:08:50.171Z,3.60
2019-01-02T18:11:19.134Z,3.37
2019-01-02T18:13:50.244Z,3.33
2019-01-02T18:16:19.146Z,3.30
2019-01-02T18:18:48.038Z,2.83
2019-01-02T18:21:17.029Z,3.03
2019-01-02T18:23:46.170Z,3.07
2019-01-02T18:26:15.100Z,3.67
2019-01-02T18:28:44.049Z,3.23
2019-01-02T18:31:13.029Z,3.13
2019-01-02T18:33:41.893Z,3.03
2019-01-02T18:36:10.965Z,3.47
2019-01-02T18:38:39.858Z,3.13
2019-01-02T18:41:08.806Z,4.23
2019-01-02T18:43:37.850Z,3.73
2019-01-02T18:46:06.830Z,4.33
2019-01-02T18:48:35.847Z,5.60
2019-01-02T18:51:04.870Z,3.93
2019-01-02T18:53:33.843Z,4.50
2019-01-02T18:56:02.760Z,3.37
2019-01-02T18:58:31.738Z,4.30
2019-01-02T19:01:00.889Z,3.33
2019-01-02T19:03:29.844Z,3.23
2019-01-02T19:05:58.955Z,3.10
2019-01-02T19:08:28.176Z,4.07
2019-01-02T19:10:57.198Z,3.27
2019-01-02T19:13:26.157Z,2.50
2019-01-02T19:15:55.467Z,3.07
2019-01-02T19:18:24.431Z,3.20
2019-01-02T19:20:53.470Z,2.97
2019-01-02T19:23:22.365Z,2.30
2019-01-02T19:25:51.325Z,2.80
2019-01-02T19:28:20.409Z,2.97
2019-01-02T19:30:49.486Z,2.43
2019-01-02T19:33:18.450Z,2.20
2019-01-02T19:35:47.408Z,2.87
2019-01-02T19:38:16.443Z,2.80
2019-01-02T19:40:45.550Z,2.30
2019-01-02T19:43:14.749Z,3.67
2019-01-02T19:45:43.891Z,2.70
2019-01-02T19:48:13.958Z,2.90
2019-01-02T19:50:43.036Z,2.90
2019-01-02T19:53:12.103Z,2.60
2019-01-02T19:55:41.669Z,2.77
2019-01-02T19:58:10.760Z,2.77
2019-01-02T20:00:39.806Z,2.40
2019-01-02T20:03:08.769Z,2.93
2019-01-02T20:05:37.650Z,3.40
2019-01-02T20:08:06.783Z,2.80
2019-01-02T20:10:36.069Z,3.80
2019-01-02T20:13:05.112Z,3.83
2019-01-02T20:15:34.106Z,4.37
2019-01-02T20:18:03.286Z,3.43
2019-01-02T20:20:32.257Z,2.40
2019-01-02T20:23:01.232Z,2.77
2019-01-02T20:25:30.262Z,2.70
2019-01-02T20:27:59.370Z,2.23
2019-01-02T20:30:28.534Z,2.43
2019-01-02T20:32:57.756Z,2.10
2019-01-02T20:35:26.810Z,1.80
2019-01-02T20:37:56.138Z,2.03
2019-01-02T20:40:25.093Z,2.17
2019-01-02T20:42:54.002Z,1.33
2019-01-02T20:45:23.422Z,1.60
2019-01-02T20:47:52.337Z,2.10
2019-01-02T20:50:21.314Z,1.83
2019-01-02T20:52:50.471Z,1.70
2019-01-02T20:55:19.791Z,1.53
2019-01-02T20:57:48.890Z,1.33
2019-01-02T21:00:18.069Z,1.53
2019-01-02T21:02:47.118Z,1.87
2019-01-02T21:05:16.589Z,1.60
2019-01-02T21:07:45.563Z,1.70
2019-01-02T21:10:16.842Z,1.27
2019-01-02T21:12:48.022Z,1.80
2019-01-02T21:15:16.987Z,1.87
2019-01-02T21:17:45.963Z,1.83
2019-01-02T21:20:15.005Z,2.03
2019-01-02T21:22:44.199Z,1.40
2019-01-02T21:25:13.276Z,1.87
2019-01-02T21:27:42.292Z,2.87
2019-01-02T21:30:11.430Z,1.40
2019-01-02T21:32:40.583Z,2.13
2019-01-02T21:35:09.712Z,1.50
2019-01-02T21:37:39.371Z,1.83
2019-01-02T21:40:09.335Z,2.00
2019-01-02T21:42:38.444Z,2.20
2019-01-02T21:45:07.593Z,1.80
2019-01-02T21:47:36.675Z,1.70
2019-01-02T21:50:06.340Z,1.73
2019-01-02T21:52:35.432Z,1.83
2019-01-02T21:55:11.212Z,1.83
2019-01-02T21:57:40.334Z,1.60
2019-01-02T22:00:12.951Z,2.10
2019-01-02T22:02:41.946Z,2.00
2019-01-02T22:05:11.189Z,1.80
2019-01-02T22:07:40.076Z,1.77
2019-01-02T22:10:09.322Z,2.03
2019-01-02T22:12:39.009Z,1.73
2019-01-02T22:15:09.946Z,1.63
2019-01-02T22:17:40.370Z,1.80
2019-01-02T22:20:09.638Z,1.70
2019-01-02T22:22:38.685Z,1.33
2019-01-02T22:25:08.345Z,1.67
2019-01-02T22:27:37.370Z,2.43
2019-01-02T22:30:07.519Z,1.63
2019-01-02T22:32:36.574Z,1.20
2019-01-02T22:35:05.849Z,1.70
2019-01-02T22:37:34.818Z,1.57
2019-01-02T22:40:04.539Z,1.53
2019-01-02T22:42:33.534Z,1.90
2019-01-02T22:45:02.528Z,1.53
2019-01-02T22:47:31.580Z,2.17
2019-01-02T22:50:00.551Z,1.83
2019-01-02T22:52:29.521Z,1.80
2019-01-02T22:55:17.681Z,1.63
2019-01-02T22:57:46.667Z,1.97
2019-01-02T23:00:44.794Z,2.00
2019-01-02T23:03:43.694Z,2.30
2019-01-02T23:06:31.278Z,1.70
2019-01-02T23:09:18.338Z,1.60
2019-01-02T23:12:06.430Z,1.70
2019-01-02T23:14:53.658Z,2.27
2019-01-02T23:17:40.626Z,1.67
2019-01-02T23:20:28.773Z,1.90
2019-01-02T23:23:17.418Z,1.90
2019-01-02T23:26:05.473Z,1.63
2019-01-02T23:29:03.326Z,1.87
2019-01-02T23:31:57.523Z,1.83
2019-01-02T23:34:48.609Z,2.53
2019-01-02T23:37:46.902Z,2.20
2019-01-02T23:40:41.349Z,2.37
2019-01-02T23:43:29.544Z,2.27
2019-01-02T23:46:23.613Z,1.73
2019-01-02T23:49:10.329Z,2.27
2019-01-02T23:51:57.375Z,1.40
2019-01-02T23:54:45.838Z,1.63
2019-01-02T23:57:32.550Z,2.27
